Time;durP1;ratioP1;P1;durP2;ratioP2;P2;SDS_P1;SDS_P2;PMS_P1;PMS_P2;Temp;Humidity;BMP_temperature;BMP_pressure;BME280_temperature;BME280_humidity;BME280_pressure;Samples;Min_cycle;Max_cycle;Signal;HPM_P1;HPM_P2
2021/06/23 00:01:11;;;;;;;4.20;3.90;;;23.40;61.20;;;;;;4996817;28;20081;-41
2021/06/23 00:03:37;;;;;;;4.55;4.22;;;23.10;60.90;;;;;;4995047;28;20026;-41
2021/06/23 00:06:02;;;;;;;3.97;3.72;;;23.40;60.80;;;;;;4995675;28;20924;-41
2021/06/23 00:08:28;;;;;;;4.15;3.85;;;23.50;60.20;;;;;;4992854;28;20500;-41
2021/06/23 00:10:53;;;;;;;3.80;3.50;;;23.60;59.70;;;;;;5006848;28;20026;-41
2021/06/23 00:13:19;;;;;;;4.93;4.03;;;23.60;59.30;;;;;;4997281;28;20029;-40
2021/06/23 00:15:45;;;;;;;4.20;3.90;;;23.70;59.60;;;;;;4995041;28;20028;-40
2021/06/23 00:18:10;;;;;;;4.20;3.90;;;23.80;59.40;;;;;;5011350;28;20435;-38
2021/06/23 00:20:36;;;;;;;3.92;3.60;;;23.60;59.30;;;;;;4993537;28;20049;-37
2021/06/23 00:23:02;;;;;;;4.07;3.85;;;23.70;60.00;;;;;;4993210;28;20043;-36
2021/06/23 00:25:29;;;;;;;3.90;3.60;;;23.70;59.80;;;;;;4996295;28;20022;-37
2021/06/23 00:27:54;;;;;;;4.22;3.92;;;23.80;59.60;;;;;;5001473;28;20095;-37
2021/06/23 00:30:20;;;;;;;3.95;3.65;;;23.80;59.60;;;;;;5002919;28;20460;-36
2021/06/23 00:32:46;;;;;;;3.78;3.58;;;23.80;59.70;;;;;;4992835;28;20026;-37
2021/06/23 00:35:12;;;;;;;3.90;3.63;;;23.80;59.50;;;;;;5008055;28;20029;-37
2021/06/23 00:37:38;;;;;;;3.65;3.45;;;23.70;59.80;;;;;;5007127;28;20037;-37
2021/06/23 00:40:05;;;;;;;4.53;3.90;;;23.80;59.20;;;;;;5007273;28;20030;-40
2021/06/23 00:42:30;;;;;;;3.80;3.50;;;23.80;59.70;;;;;;5008417;28;20459;-41
2021/06/23 00:44:56;;;;;;;4.00;3.65;;;23.80;59.20;;;;;;5018854;28;20026;-41
2021/06/23 00:47:25;;;;;;;3.80;3.53;;;23.80;59.20;;;;;;5021707;28;20038;-41
2021/06/23 00:49:51;;;;;;;3.88;3.58;;;23.80;59.10;;;;;;5008481;28;20413;-41
2021/06/23 00:52:16;;;;;;;6.18;4.13;;;23.80;58.70;;;;;;5020619;28;20030;-41
2021/06/23 00:54:47;;;;;;;4.35;4.05;;;23.80;59.20;;;;;;5007491;28;20026;-41
2021/06/23 00:57:13;;;;;;;4.07;3.78;;;23.80;58.80;;;;;;5005593;28;20085;-41
2021/06/23 00:59:38;;;;;;;4.05;3.85;;;23.60;59.00;;;;;;5005491;28;20026;-41
2021/06/23 01:02:04;;;;;;;3.60;3.40;;;23.40;59.30;;;;;;5007159;28;20052;-41
2021/06/23 01:04:30;;;;;;;4.28;4.00;;;23.50;59.70;;;;;;4996361;28;20058;-41
2021/06/23 01:06:55;;;;;;;4.07;3.78;;;23.70;59.90;;;;;;4993972;28;20038;-41
2021/06/23 01:09:21;;;;;;;4.10;3.90;;;23.70;59.50;;;;;;5013227;28;20150;-41
2021/06/23 01:12:25;;;;;;;4.53;4.22;;;23.60;59.10;;;;;;5021869;28;20042;-41
2021/06/23 01:14:53;;;;;;;4.10;3.92;;;23.50;59.50;;;;;;4994608;28;20408;-41
2021/06/23 01:17:20;;;;;;;4.15;3.85;;;23.60;59.60;;;;;;4992367;28;20496;-41
2021/06/23 01:19:45;;;;;;;4.10;3.80;;;23.60;59.30;;;;;;4999178;28;20027;-41
2021/06/23 01:22:14;;;;;;;4.13;3.78;;;23.50;59.40;;;;;;5006545;28;20042;-41
2021/06/23 01:24:41;;;;;;;3.65;3.45;;;23.50;60.40;;;;;;5006795;28;20404;-41
2021/06/23 01:27:07;;;;;;;4.03;3.60;;;23.50;59.40;;;;;;5021953;28;20027;-41
2021/06/23 01:29:33;;;;;;;3.25;3.05;;;23.60;59.30;;;;;;5009901;28;20033;-41
2021/06/23 01:31:58;;;;;;;3.85;3.65;;;23.60;59.50;;;;;;4996189;28;20030;-41
2021/06/23 01:34:24;;;;;;;3.95;3.75;;;23.60;59.50;;;;;;5009663;28;20095;-41
2021/06/23 01:36:49;;;;;;;3.00;2.80;;;23.80;59.10;;;;;;5006322;28;20497;-41
2021/06/23 01:39:15;;;;;;;3.35;3.15;;;23.70;59.10;;;;;;5011100;28;20037;-41
2021/06/23 01:41:41;;;;;;;3.50;3.30;;;23.60;59.50;;;;;;5010118;28;20037;-41
2021/06/23 01:44:06;;;;;;;3.10;2.90;;;23.50;59.20;;;;;;5002628;28;20033;-41
2021/06/23 01:46:32;;;;;;;3.60;3.30;;;23.60;59.40;;;;;;4998796;28;20077;-41
2021/06/23 01:48:57;;;;;;;3.50;3.20;;;23.60;59.40;;;;;;4998091;28;20034;-41
2021/06/23 01:51:23;;;;;;;3.25;3.05;;;23.50;59.00;;;;;;4998230;28;20046;-41
2021/06/23 01:53:49;;;;;;;3.58;3.38;;;23.50;59.40;;;;;;4998504;28;20502;-41
2021/06/23 01:56:15;;;;;;;3.30;3.10;;;23.60;59.10;;;;;;4994258;28;20026;-40
2021/06/23 01:58:42;;;;;;;3.13;2.92;;;23.60;59.00;;;;;;4998733;28;20030;-41
2021/06/23 02:01:17;;;;;;;3.60;3.40;;;23.60;59.10;;;;;;5012158;28;20064;-39
2021/06/23 02:03:55;;;;;;;3.20;3.00;;;23.60;58.70;;;;;;4998036;28;20026;-35
2021/06/23 02:06:56;;;;;;;3.05;2.85;;;23.50;59.00;;;;;;4999669;28;20033;-35
2021/06/23 02:09:43;;;;;;;2.83;2.67;;;23.50;59.10;;;;;;4950746;28;20073;-37
2021/06/23 02:12:27;;;;;;;2.90;2.80;;;23.40;58.90;;;;;;4951359;28;20046;-36
2021/06/23 02:15:00;;;;;;;3.38;3.08;;;23.30;59.20;;;;;;4951482;28;20420;-37
2021/06/23 02:17:28;;;;;;;2.60;2.50;;;23.30;59.50;;;;;;4951731;29;20035;-37
2021/06/23 02:19:54;;;;;;;3.40;3.10;;;23.30;59.30;;;;;;4951814;29;20145;-37
2021/06/23 02:22:21;;;;;;;2.97;2.63;;;23.30;59.40;;;;;;4937770;29;20047;-36
2021/06/23 02:24:48;;;;;;;3.50;3.30;;;23.20;59.90;;;;;;4932249;28;20051;-36
2021/06/23 02:27:13;;;;;;;3.15;2.95;;;23.20;59.60;;;;;;4932414;29;20447;-36
2021/06/23 02:29:39;;;;;;;3.38;3.15;;;23.10;59.80;;;;;;4931265;29;20510;-36
2021/06/23 02:32:07;;;;;;;3.50;3.20;;;23.00;59.40;;;;;;4935141;29;20074;-37
2021/06/23 02:34:33;;;;;;;3.10;2.90;;;23.00;59.40;;;;;;4952986;29;20079;-40
2021/06/23 02:37:00;;;;;;;2.97;2.88;;;23.00;59.40;;;;;;4934998;29;20502;-41
2021/06/23 02:39:25;;;;;;;3.00;2.80;;;22.90;60.20;;;;;;4939528;29;20035;-40
2021/06/23 02:41:51;;;;;;;3.15;2.90;;;22.90;59.80;;;;;;4934754;29;20469;-41
2021/06/23 02:44:16;;;;;;;3.05;2.85;;;22.90;59.80;;;;;;4941729;29;20031;-41
2021/06/23 02:46:42;;;;;;;3.08;2.88;;;22.80;60.10;;;;;;4973312;28;20124;-42
2021/06/23 02:49:08;;;;;;;2.83;2.63;;;22.80;60.50;;;;;;4979747;28;20031;-41
2021/06/23 02:51:39;;;;;;;3.20;3.00;;;22.80;59.90;;;;;;4996846;28;20069;-42
2021/06/23 02:54:04;;;;;;;2.97;2.88;;;22.80;60.10;;;;;;4997441;28;20034;-41
2021/06/23 02:56:30;;;;;;;3.85;3.65;;;22.60;60.20;;;;;;4977397;28;20048;-42
2021/06/23 02:58:56;;;;;;;2.50;2.40;;;22.60;60.20;;;;;;4993807;28;20105;-42
2021/06/23 03:01:21;;;;;;;2.55;2.40;;;22.70;61.50;;;;;;5013196;28;20037;-41
2021/06/23 03:03:48;;;;;;;2.42;2.25;;;22.60;60.30;;;;;;4997027;28;20030;-42
2021/06/23 03:06:13;;;;;;;2.95;2.75;;;22.50;61.00;;;;;;4997537;28;20022;-42
2021/06/23 03:08:39;;;;;;;2.78;2.58;;;22.50;61.40;;;;;;5007473;28;20084;-43
2021/06/23 03:11:05;;;;;;;3.08;2.88;;;22.50;62.10;;;;;;4994274;28;20400;-40
2021/06/23 03:13:30;;;;;;;2.65;2.50;;;22.50;61.20;;;;;;4997416;28;20564;-37
2021/06/23 03:15:56;;;;;;;3.00;2.80;;;22.50;61.00;;;;;;4996622;28;20515;-38
2021/06/23 03:18:22;;;;;;;3.33;2.17;;;22.50;61.70;;;;;;4995817;28;20034;-37
2021/06/23 03:20:48;;;;;;;2.40;2.30;;;22.40;62.30;;;;;;4993642;28;20038;-39
2021/06/23 03:23:13;;;;;;;2.60;2.42;;;22.40;62.30;;;;;;5007824;28;20034;-39
2021/06/23 03:25:39;;;;;;;2.88;2.70;;;22.50;61.40;;;;;;4997363;28;20034;-39
2021/06/23 03:28:05;;;;;;;3.10;2.90;;;22.50;61.70;;;;;;4996545;28;20030;-38
2021/06/23 03:30:30;;;;;;;2.80;2.60;;;22.40;62.00;;;;;;4998898;28;20036;-38
2021/06/23 03:32:56;;;;;;;2.25;2.15;;;22.50;61.70;;;;;;5006264;28;20496;-39
2021/06/23 03:35:23;;;;;;;2.75;2.60;;;22.60;61.00;;;;;;4994210;28;20110;-39
2021/06/23 03:37:49;;;;;;;3.10;2.40;;;22.40;61.90;;;;;;5007294;28;20096;-39
2021/06/23 03:40:15;;;;;;;2.70;2.50;;;22.50;62.30;;;;;;5008020;28;20176;-39
2021/06/23 03:42:41;;;;;;;2.58;2.38;;;22.40;61.10;;;;;;5003633;28;20595;-39
2021/06/23 03:45:07;;;;;;;2.70;2.50;;;22.40;61.40;;;;;;5005184;28;20029;-39
2021/06/23 03:47:33;;;;;;;2.30;2.20;;;22.50;61.30;;;;;;4994041;28;20033;-39
2021/06/23 03:49:58;;;;;;;2.30;2.20;;;22.50;61.70;;;;;;4993359;28;20413;-39
2021/06/23 03:52:24;;;;;;;3.20;2.90;;;22.50;61.50;;;;;;4997101;28;20081;-40
2021/06/23 03:54:49;;;;;;;2.75;2.55;;;22.40;62.00;;;;;;5010844;28;20390;-39
2021/06/23 03:57:15;;;;;;;2.72;2.53;;;22.40;62.30;;;;;;4995174;28;20065;-36
2021/06/23 03:59:41;;;;;;;3.00;2.80;;;22.40;62.00;;;;;;4994564;28;20028;-35
2021/06/23 04:02:06;;;;;;;2.47;2.38;;;22.50;61.90;;;;;;4993044;28;20034;-39
2021/06/23 04:04:32;;;;;;;2.95;2.75;;;22.40;62.60;;;;;;4996626;28;20034;-40
2021/06/23 04:06:57;;;;;;;2.88;2.67;;;22.40;61.90;;;;;;5002022;28;20025;-39
2021/06/23 04:09:23;;;;;;;3.05;2.63;;;22.40;62.00;;;;;;5002614;28;20085;-39
2021/06/23 04:11:48;;;;;;;2.13;2.03;;;22.50;62.80;;;;;;4995626;28;20057;-40
2021/06/23 04:14:14;;;;;;;2.60;2.45;;;22.50;62.40;;;;;;5006925;28;20076;-40
2021/06/23 04:16:40;;;;;;;2.17;2.08;;;22.40;61.90;;;;;;5009151;28;20088;-40
2021/06/23 04:19:06;;;;;;;2.63;2.42;;;22.40;62.10;;;;;;5023073;28;20036;-39
2021/06/23 04:21:31;;;;;;;2.85;2.65;;;22.40;63.00;;;;;;5001076;28;20044;-40
2021/06/23 04:23:57;;;;;;;2.88;2.67;;;22.40;62.20;;;;;;4995983;28;20117;-38
2021/06/23 04:26:22;;;;;;;2.60;2.50;;;22.40;62.50;;;;;;4992446;28;20378;-40
2021/06/23 04:28:48;;;;;;;2.45;2.25;;;22.40;62.10;;;;;;4995232;28;20030;-42
2021/06/23 04:31:14;;;;;;;2.35;2.25;;;22.40;62.30;;;;;;4996253;28;20031;-41
2021/06/23 04:33:39;;;;;;;2.10;2.00;;;22.40;62.50;;;;;;4995608;28;20049;-41
2021/06/23 04:36:05;;;;;;;2.80;2.38;;;22.40;62.30;;;;;;4995853;28;20030;-41
2021/06/23 04:38:30;;;;;;;2.60;2.50;;;22.40;62.50;;;;;;4993323;28;20034;-41
2021/06/23 04:40:56;;;;;;;2.42;2.33;;;22.40;63.10;;;;;;4993709;28;20042;-40
2021/06/23 04:43:22;;;;;;;2.63;2.53;;;22.40;61.90;;;;;;5000934;28;20045;-41
2021/06/23 04:45:47;;;;;;;2.67;2.47;;;22.50;62.40;;;;;;4998648;28;20451;-40
2021/06/23 04:48:13;;;;;;;2.47;2.35;;;22.40;62.20;;;;;;4994922;28;20252;-41
2021/06/23 04:50:39;;;;;;;2.45;2.35;;;22.30;62.40;;;;;;5005939;28;20051;-41
2021/06/23 04:53:04;;;;;;;2.22;2.03;;;22.40;62.60;;;;;;5009907;28;20403;-40
2021/06/23 04:55:30;;;;;;;1.85;1.75;;;22.40;62.00;;;;;;4998376;28;20117;-43
2021/06/23 04:57:56;;;;;;;2.28;2.17;;;22.40;62.20;;;;;;5003324;28;20030;-42
2021/06/23 05:00:22;;;;;;;1.90;1.80;;;22.40;61.90;;;;;;5010583;28;20080;-42
2021/06/23 05:02:48;;;;;;;1.90;1.80;;;22.40;61.90;;;;;;5010963;28;20046;-43
2021/06/23 05:05:14;;;;;;;2.75;2.55;;;22.30;62.90;;;;;;5000955;28;20023;-45
2021/06/23 05:07:40;;;;;;;2.22;2.13;;;22.30;62.70;;;;;;5028491;28;20539;-42
2021/06/23 05:10:06;;;;;;;2.33;2.13;;;22.30;62.30;;;;;;5001614;28;20033;-45
2021/06/23 05:12:33;;;;;;;2.10;2.00;;;22.30;62.50;;;;;;5008121;28;20484;-45
2021/06/23 05:14:58;;;;;;;2.00;1.90;;;22.30;62.80;;;;;;5010155;28;20843;-41
2021/06/23 05:17:24;;;;;;;2.40;2.20;;;22.30;62.60;;;;;;5010308;28;20035;-44
2021/06/23 05:19:51;;;;;;;4.13;1.75;;;22.40;62.60;;;;;;5010471;28;20026;-44
2021/06/23 05:22:17;;;;;;;2.70;1.75;;;22.50;62.10;;;;;;5011405;28;20034;-45
2021/06/23 05:24:44;;;;;;;2.05;1.90;;;22.50;62.10;;;;;;5008943;28;20040;-43
2021/06/23 05:27:10;;;;;;;2.60;2.40;;;22.50;62.80;;;;;;4995147;28;20117;-43
2021/06/23 05:29:36;;;;;;;2.20;2.10;;;22.50;62.50;;;;;;5009779;28;20025;-44
2021/06/23 05:32:03;;;;;;;2.22;2.05;;;22.50;62.50;;;;;;4995215;28;20461;-45
2021/06/23 05:34:30;;;;;;;2.28;2.08;;;22.50;62.00;;;;;;5011759;28;20400;-43
2021/06/23 05:36:59;;;;;;;2.40;2.20;;;22.40;62.40;;;;;;5010268;28;20040;-43
2021/06/23 05:39:25;;;;;;;2.35;2.15;;;22.30;62.20;;;;;;5009692;28;20412;-43
2021/06/23 05:41:55;;;;;;;1.92;1.83;;;22.30;62.20;;;;;;5014728;28;20033;-44
2021/06/23 05:44:20;;;;;;;2.28;2.10;;;22.30;62.40;;;;;;5006943;28;20025;-44
2021/06/23 05:46:50;;;;;;;1.85;1.75;;;22.30;62.60;;;;;;5012499;28;20022;-44
2021/06/23 05:49:16;;;;;;;3.85;2.05;;;22.30;62.50;;;;;;5010687;28;20119;-44
2021/06/23 05:51:42;;;;;;;2.05;1.95;;;22.30;62.50;;;;;;5010129;28;20086;-42
2021/06/23 05:54:08;;;;;;;2.45;2.25;;;22.40;62.80;;;;;;5009581;28;20026;-44
2021/06/23 05:56:36;;;;;;;2.47;2.00;;;22.30;62.30;;;;;;4971761;28;20141;-44
2021/06/23 05:59:02;;;;;;;2.40;2.20;;;22.30;62.50;;;;;;4989397;28;20058;-43
2021/06/23 06:01:31;;;;;;;1.98;1.88;;;22.40;63.00;;;;;;4989653;28;20077;-44
2021/06/23 06:03:58;;;;;;;2.20;2.00;;;22.30;62.30;;;;;;4986524;28;20109;-47
2021/06/23 06:06:24;;;;;;;1.92;1.80;;;22.30;62.60;;;;;;4986862;28;20181;-44
2021/06/23 06:08:49;;;;;;;2.67;1.60;;;22.30;62.40;;;;;;4989052;28;20192;-47
2021/06/23 06:11:15;;;;;;;1.70;1.60;;;22.30;62.40;;;;;;4987531;28;20480;-45
2021/06/23 06:13:41;;;;;;;2.83;1.85;;;22.30;62.80;;;;;;4991889;28;20254;-45
2021/06/23 06:16:08;;;;;;;2.13;1.92;;;22.30;62.60;;;;;;4971185;28;20065;-45
2021/06/23 06:18:34;;;;;;;2.00;1.90;;;22.30;62.70;;;;;;4947300;28;20519;-44
2021/06/23 06:21:02;;;;;;;2.03;1.92;;;22.30;62.50;;;;;;4966699;28;20030;-44
2021/06/23 06:23:30;;;;;;;1.83;1.73;;;22.30;62.60;;;;;;5009157;28;20038;-46
2021/06/23 06:25:56;;;;;;;1.67;1.58;;;22.30;63.60;;;;;;5010837;28;20022;-39
2021/06/23 06:28:21;;;;;;;2.22;1.80;;;22.40;63.10;;;;;;4991893;28;20401;-33
2021/06/23 06:30:47;;;;;;;2.67;1.70;;;22.40;61.90;;;;;;4990747;28;20019;-38
2021/06/23 06:33:12;;;;;;;3.65;1.77;;;22.40;62.20;;;;;;4990413;28;20121;-36
2021/06/23 06:35:38;;;;;;;1.80;1.67;;;22.40;62.50;;;;;;4990347;28;20471;-35
2021/06/23 06:38:04;;;;;;;1.63;1.52;;;22.40;62.40;;;;;;4990721;28;20026;-35
2021/06/23 06:40:29;;;;;;;2.00;1.80;;;22.30;62.30;;;;;;4990970;28;20101;-35
2021/06/23 06:42:55;;;;;;;2.83;1.80;;;22.30;62.80;;;;;;4989955;28;20048;-35
2021/06/23 06:45:22;;;;;;;2.15;1.88;;;22.30;62.00;;;;;;4977279;28;20496;-35
2021/06/23 06:47:48;;;;;;;2.85;1.52;;;22.30;62.00;;;;;;4989443;28;20129;-35
2021/06/23 06:50:13;;;;;;;2.08;1.77;;;22.30;61.80;;;;;;4990601;28;20529;-35
2021/06/23 06:52:39;;;;;;;1.58;1.48;;;22.30;61.70;;;;;;4992246;28;20030;-36
2021/06/23 06:55:06;;;;;;;2.58;1.40;;;22.30;61.60;;;;;;4990633;28;20050;-35
2021/06/23 06:57:32;;;;;;;2.20;1.63;;;22.40;61.90;;;;;;4988172;28;20405;-34
2021/06/23 06:59:57;;;;;;;1.98;1.80;;;22.50;61.50;;;;;;4989274;28;20068;-34
2021/06/23 07:02:23;;;;;;;2.28;1.80;;;22.40;61.70;;;;;;4989810;28;20875;-35
2021/06/23 07:04:48;;;;;;;1.90;1.80;;;22.40;61.60;;;;;;4973837;28;20110;-36
2021/06/23 07:07:14;;;;;;;2.20;1.80;;;22.40;61.80;;;;;;4989235;28;20030;-35
2021/06/23 07:09:40;;;;;;;1.83;1.55;;;22.40;61.60;;;;;;4989503;28;20160;-33
2021/06/23 07:12:06;;;;;;;1.60;1.50;;;22.30;61.50;;;;;;4989926;28;20037;-34
2021/06/23 07:14:31;;;;;;;1.50;1.40;;;22.40;61.60;;;;;;4987852;28;20045;-33
2021/06/23 07:16:57;;;;;;;2.05;1.55;;;22.50;61.20;;;;;;4990023;28;20481;-34
2021/06/23 07:19:22;;;;;;;2.15;1.60;;;22.50;61.30;;;;;;4990177;28;20030;-34
2021/06/23 07:21:48;;;;;;;1.50;1.40;;;22.50;61.10;;;;;;4990141;28;20045;-35
2021/06/23 07:24:18;;;;;;;1.75;1.42;;;22.40;61.00;;;;;;4989404;28;20083;-34
2021/06/23 07:26:48;;;;;;;3.55;1.30;;;22.50;61.30;;;;;;4989475;28;20088;-36
2021/06/23 07:29:15;;;;;;;1.63;1.52;;;22.40;61.10;;;;;;4989830;28;20026;-35
2021/06/23 07:31:46;;;;;;;1.85;1.70;;;22.40;61.10;;;;;;4992464;28;20022;-34
2021/06/23 07:34:21;;;;;;;2.25;1.60;;;22.40;61.20;;;;;;4988544;28;20037;-34
2021/06/23 07:36:56;;;;;;;1.40;1.30;;;22.50;61.30;;;;;;4988864;28;20455;-35
2021/06/23 07:39:22;;;;;;;2.53;1.83;;;22.50;61.10;;;;;;4988776;28;20042;-36
2021/06/23 07:41:48;;;;;;;2.08;1.65;;;22.50;61.10;;;;;;4988947;28;20409;-35
2021/06/23 07:44:17;;;;;;;1.40;1.30;;;22.50;61.10;;;;;;4989417;28;20089;-35
2021/06/23 07:46:55;;;;;;;1.33;1.20;;;22.50;60.90;;;;;;4992462;28;20050;-35
2021/06/23 07:49:23;;;;;;;1.80;1.40;;;22.50;60.90;;;;;;4989172;28;20026;-34
2021/06/23 07:55:41;;;;;;;1.48;1.30;;;22.50;60.80;;;;;;4988231;28;20037;-34
2021/06/23 08:10:44;;;;;;;2.78;1.30;;;22.60;60.40;;;;;;4950944;29;20097;-35
2021/06/23 08:13:11;;;;;;;2.60;1.15;;;22.60;60.10;;;;;;4946975;28;20118;-33
2021/06/23 08:15:38;;;;;;;1.73;1.45;;;22.60;60.10;;;;;;4926630;29;20135;-32
2021/06/23 08:18:04;;;;;;;3.15;1.15;;;22.60;60.10;;;;;;4938943;28;20513;-34
2021/06/23 08:20:29;;;;;;;1.40;1.30;;;22.70;60.20;;;;;;4947305;29;20035;-36
2021/06/23 08:22:55;;;;;;;1.60;1.50;;;22.60;60.20;;;;;;4949461;28;20039;-36
2021/06/23 08:25:21;;;;;;;1.42;1.20;;;22.70;60.90;;;;;;4950199;29;20038;-35
2021/06/23 08:27:47;;;;;;;1.48;1.38;;;22.70;60.00;;;;;;4946552;29;20047;-36
2021/06/23 08:30:14;;;;;;;1.88;1.23;;;22.70;59.90;;;;;;4949954;28;20064;-36
2021/06/23 08:32:39;;;;;;;1.20;1.10;;;22.60;60.00;;;;;;4947170;29;20043;-34
2021/06/23 08:35:06;;;;;;;1.60;1.38;;;22.60;60.40;;;;;;4948263;28;20079;-36
2021/06/23 08:37:31;;;;;;;2.17;1.38;;;22.60;60.30;;;;;;4949383;29;20041;-35
2021/06/23 08:39:57;;;;;;;2.40;1.25;;;22.50;60.30;;;;;;4948164;28;20114;-34
2021/06/23 08:42:23;;;;;;;1.75;1.20;;;22.50;60.50;;;;;;5003309;28;20058;-34
2021/06/23 08:44:49;;;;;;;2.35;1.30;;;22.50;60.40;;;;;;5003117;28;20392;-36
2021/06/23 08:47:15;;;;;;;1.90;1.40;;;22.50;60.40;;;;;;4989539;28;20053;-35
2021/06/23 08:49:43;;;;;;;2.28;1.30;;;22.60;60.30;;;;;;4992144;28;20027;-35
2021/06/23 08:52:09;;;;;;;1.33;1.23;;;22.50;60.20;;;;;;4988288;28;20084;-35
2021/06/23 08:54:34;;;;;;;2.05;1.38;;;22.60;60.30;;;;;;4984281;28;20122;-36
2021/06/23 08:57:00;;;;;;;1.95;1.20;;;22.50;60.20;;;;;;4987921;28;20121;-35
2021/06/23 08:59:25;;;;;;;1.60;1.33;;;22.50;60.30;;;;;;4989229;28;20401;-35
2021/06/23 09:01:51;;;;;;;1.25;1.15;;;22.60;60.30;;;;;;4990775;28;20040;-35
2021/06/23 09:04:18;;;;;;;1.33;1.23;;;22.50;60.20;;;;;;4988520;28;20022;-34
2021/06/23 09:06:58;;;;;;;2.17;1.40;;;22.50;60.20;;;;;;4987773;28;20030;-35
2021/06/23 09:09:33;;;;;;;1.50;1.40;;;22.50;60.30;;;;;;4987441;28;20121;-35
2021/06/23 09:12:00;;;;;;;1.38;1.20;;;22.50;60.30;;;;;;4987335;28;20041;-35
2021/06/23 09:14:28;;;;;;;2.67;1.88;;;22.50;60.40;;;;;;4987454;28;20033;-35
2021/06/23 09:17:15;;;;;;;2.03;1.50;;;22.50;60.20;;;;;;4990857;28;20031;-35
2021/06/23 09:19:45;;;;;;;1.50;1.40;;;22.40;60.40;;;;;;4990825;28;20029;-35
2021/06/23 09:22:32;;;;;;;1.63;1.40;;;22.50;60.20;;;;;;4988391;28;20519;-35
2021/06/23 09:24:58;;;;;;;1.85;1.65;;;22.50;60.00;;;;;;4987136;28;20038;-35
2021/06/23 09:27:27;;;;;;;1.50;1.40;;;22.50;60.10;;;;;;4987246;28;20473;-35
2021/06/23 09:29:53;;;;;;;2.45;1.50;;;22.50;60.10;;;;;;4998324;28;20587;-35
2021/06/23 09:32:20;;;;;;;1.70;1.60;;;22.50;60.10;;;;;;5002618;28;20563;-35
2021/06/23 09:34:52;;;;;;;2.03;1.80;;;22.50;60.10;;;;;;4987302;28;20097;-35
2021/06/23 09:37:34;;;;;;;1.42;1.33;;;22.50;60.10;;;;;;5002860;28;20037;-35
2021/06/23 09:40:16;;;;;;;1.85;1.50;;;22.60;60.10;;;;;;4990335;28;20022;-35
2021/06/23 09:42:43;;;;;;;1.75;1.65;;;22.60;59.90;;;;;;4989975;28;20078;-35
2021/06/23 09:45:10;;;;;;;1.52;1.30;;;22.60;59.70;;;;;;4990199;28;20033;-35
2021/06/23 09:47:37;;;;;;;2.00;1.80;;;22.60;59.80;;;;;;4992222;28;20037;-35
2021/06/23 09:50:05;;;;;;;1.73;1.40;;;22.60;59.90;;;;;;4991634;28;20082;-35
2021/06/23 09:52:30;;;;;;;2.38;1.50;;;22.60;60.00;;;;;;4993140;28;20030;-35
2021/06/23 09:54:58;;;;;;;1.40;1.30;;;22.60;59.90;;;;;;4990843;28;20045;-35
2021/06/23 09:57:24;;;;;;;1.67;1.42;;;22.60;60.00;;;;;;5004614;28;20034;-35
2021/06/23 09:59:53;;;;;;;1.95;1.73;;;22.60;60.00;;;;;;4992358;28;20037;-34
2021/06/23 10:02:32;;;;;;;1.25;1.15;;;22.50;60.00;;;;;;5003791;28;20049;-35
2021/06/23 10:05:21;;;;;;;1.67;1.58;;;22.60;59.90;;;;;;5005192;28;20046;-35
2021/06/23 10:07:49;;;;;;;3.00;1.40;;;22.60;60.00;;;;;;4994455;28;20030;-34
2021/06/23 10:10:20;;;;;;;1.60;1.50;;;22.50;60.00;;;;;;4990620;28;20038;-35
2021/06/23 10:12:47;;;;;;;1.65;1.33;;;22.50;60.00;;;;;;4989701;28;20027;-35
2021/06/23 10:15:13;;;;;;;2.60;1.48;;;22.50;60.00;;;;;;4991232;28;20485;-34
2021/06/23 10:17:39;;;;;;;2.05;1.70;;;22.60;60.00;;;;;;4990291;28;20107;-34
2021/06/23 10:20:05;;;;;;;1.70;1.60;;;22.60;60.00;;;;;;4991992;28;20441;-35
2021/06/23 10:22:34;;;;;;;1.40;1.30;;;22.50;60.20;;;;;;4992376;28;20035;-34
2021/06/23 10:25:04;;;;;;;1.42;1.33;;;22.60;60.10;;;;;;5004280;28;20030;-34
2021/06/23 10:27:29;;;;;;;1.83;1.33;;;22.60;60.20;;;;;;4989802;28;20030;-34
2021/06/23 10:29:57;;;;;;;1.45;1.35;;;22.60;60.10;;;;;;5004906;28;20041;-35
2021/06/23 10:32:23;;;;;;;2.55;1.50;;;22.60;60.10;;;;;;4989532;28;20081;-34
2021/06/23 10:34:48;;;;;;;1.70;1.60;;;22.60;60.00;;;;;;5008677;28;20508;-35
2021/06/23 10:37:14;;;;;;;1.83;1.50;;;22.60;60.10;;;;;;4990485;28;20038;-35
2021/06/23 10:39:40;;;;;;;1.58;1.30;;;22.60;60.10;;;;;;4970392;28;20057;-35
2021/06/23 10:42:07;;;;;;;1.60;1.50;;;22.60;60.00;;;;;;4956105;28;20108;-35
2021/06/23 10:44:39;;;;;;;1.90;1.60;;;22.60;59.90;;;;;;4991121;28;20026;-34
2021/06/23 10:47:07;;;;;;;1.27;1.17;;;22.60;59.90;;;;;;4990965;28;20105;-33
2021/06/23 10:49:50;;;;;;;1.65;1.40;;;22.60;59.90;;;;;;4992766;28;20053;-35
2021/06/23 10:52:22;;;;;;;2.90;1.50;;;22.50;60.00;;;;;;4991923;28;20080;-35
2021/06/23 10:55:07;;;;;;;2.00;1.77;;;22.60;59.90;;;;;;4987105;28;20057;-37
2021/06/23 10:57:43;;;;;;;1.70;1.60;;;22.50;59.80;;;;;;4986813;28;20026;-35
2021/06/23 11:00:12;;;;;;;2.58;1.63;;;22.50;59.90;;;;;;4986888;28;20034;-39
2021/06/23 11:02:40;;;;;;;1.73;1.63;;;22.50;59.90;;;;;;4984008;28;20053;-40
2021/06/23 11:05:15;;;;;;;2.63;1.85;;;22.60;59.70;;;;;;4989334;28;20097;-45
2021/06/23 11:07:50;;;;;;;2.40;2.03;;;22.60;59.70;;;;;;4990933;28;20605;-42
2021/06/23 11:10:17;;;;;;;3.25;2.55;;;22.60;60.00;;;;;;4990663;28;20092;-42
2021/06/23 11:12:48;;;;;;;4.25;2.30;;;22.60;60.80;;;;;;4982418;28;20034;-40
2021/06/23 11:15:20;;;;;;;2.60;2.10;;;22.60;61.00;;;;;;4986128;28;20038;-54
2021/06/23 11:17:48;;;;;;;3.20;2.08;;;22.60;60.20;;;;;;4982154;28;20105;-54
2021/06/23 11:20:20;;;;;;;3.72;2.20;;;22.60;60.40;;;;;;4987991;28;20018;-51
2021/06/23 11:22:56;;;;;;;3.30;2.00;;;22.60;60.30;;;;;;4989888;28;20516;-50
2021/06/23 11:25:33;;;;;;;8.00;3.13;;;22.50;60.30;;;;;;4989746;28;20050;-52
2021/06/23 11:28:08;;;;;;;3.13;2.50;;;22.50;60.50;;;;;;4988191;28;20100;-51
2021/06/23 11:30:37;;;;;;;4.25;2.38;;;22.50;60.70;;;;;;4987908;28;20105;-53
2021/06/23 11:33:28;;;;;;;2.67;1.90;;;22.60;60.80;;;;;;4985544;28;20501;-52
2021/06/23 11:35:58;;;;;;;2.97;2.50;;;22.60;60.50;;;;;;4988547;28;20038;-53
2021/06/23 11:38:24;;;;;;;2.42;2.10;;;22.60;60.50;;;;;;4987738;28;20034;-43
2021/06/23 11:40:51;;;;;;;3.15;2.38;;;22.60;60.40;;;;;;4990278;28;20027;-43
2021/06/23 11:43:16;;;;;;;2.67;1.80;;;22.60;60.40;;;;;;4986673;28;20709;-43
2021/06/23 11:45:42;;;;;;;4.80;1.80;;;22.70;60.50;;;;;;4987392;28;20034;-42
2021/06/23 11:48:09;;;;;;;2.42;1.90;;;22.60;60.20;;;;;;4987839;28;20603;-44
2021/06/23 11:50:35;;;;;;;2.30;2.08;;;22.60;60.40;;;;;;4987734;28;20058;-42
2021/06/23 11:53:07;;;;;;;1.88;1.75;;;22.70;60.30;;;;;;4986268;28;20034;-49
2021/06/23 11:55:34;;;;;;;2.10;1.83;;;22.70;60.30;;;;;;4990440;28;20041;-45
2021/06/23 11:58:04;;;;;;;2.78;1.98;;;22.70;60.50;;;;;;4959510;28;20512;-47
2021/06/23 12:00:31;;;;;;;2.83;1.92;;;22.70;60.90;;;;;;4971672;28;20033;-55
2021/06/23 12:02:58;;;;;;;3.38;1.70;;;22.80;60.70;;;;;;4970632;28;20089;-57
2021/06/23 12:05:25;;;;;;;2.40;2.20;;;22.80;60.90;;;;;;4972137;28;20038;-58
2021/06/23 12:07:53;;;;;;;2.13;1.90;;;22.80;60.70;;;;;;4990943;28;20085;-58
2021/06/23 12:10:22;;;;;;;1.80;1.70;;;22.90;60.40;;;;;;4988936;28;20114;-57
2021/06/23 12:12:48;;;;;;;2.70;1.67;;;22.90;61.00;;;;;;4966785;28;20049;-56
2021/06/23 12:15:15;;;;;;;1.90;1.80;;;23.00;62.20;;;;;;4975755;28;20022;-56
2021/06/23 12:17:41;;;;;;;3.38;1.60;;;23.00;61.60;;;;;;4987447;28;20058;-56
2021/06/23 12:20:08;;;;;;;1.92;1.65;;;23.10;61.20;;;;;;4988214;28;20026;-60
2021/06/23 12:22:34;;;;;;;2.22;1.73;;;23.20;60.50;;;;;;4989125;28;20073;-57
2021/06/23 12:25:00;;;;;;;1.98;1.88;;;23.10;61.10;;;;;;4973133;28;20050;-57
2021/06/23 12:27:26;;;;;;;3.33;1.90;;;23.10;61.50;;;;;;4986206;28;20460;-50
2021/06/23 12:29:52;;;;;;;2.65;1.95;;;23.00;61.80;;;;;;4986503;28;20034;-59
2021/06/23 12:32:17;;;;;;;1.90;1.80;;;23.00;61.30;;;;;;4987361;28;20513;-57
2021/06/23 12:34:43;;;;;;;1.90;1.80;;;23.00;61.30;;;;;;4988656;28;20038;-57
2021/06/23 12:37:09;;;;;;;1.85;1.73;;;23.10;61.00;;;;;;4986493;28;20110;-58
2021/06/23 12:39:34;;;;;;;2.17;1.75;;;23.10;60.90;;;;;;4970206;28;20412;-55
2021/06/23 12:42:00;;;;;;;1.88;1.77;;;23.10;60.70;;;;;;4987797;28;20027;-57
2021/06/23 12:44:25;;;;;;;1.88;1.77;;;23.00;60.70;;;;;;5009683;28;20030;-57
2021/06/23 12:46:51;;;;;;;2.90;2.00;;;23.00;61.60;;;;;;4990375;28;21364;-57
2021/06/23 12:49:17;;;;;;;1.95;1.80;;;23.10;61.50;;;;;;4989655;28;20531;-58
2021/06/23 12:51:43;;;;;;;2.00;1.80;;;23.00;61.10;;;;;;4987646;28;20416;-56
2021/06/23 12:54:08;;;;;;;2.22;1.83;;;23.10;60.80;;;;;;4988608;28;20030;-58
2021/06/23 12:56:34;;;;;;;1.98;1.75;;;23.10;61.20;;;;;;4987843;28;20398;-59
2021/06/23 12:59:00;;;;;;;2.92;1.92;;;23.10;61.50;;;;;;4989247;28;20035;-60
2021/06/23 13:01:26;;;;;;;3.60;1.80;;;23.00;61.00;;;;;;4990310;28;20026;-60
2021/06/23 13:03:52;;;;;;;3.22;1.85;;;23.00;60.90;;;;;;4986620;28;20041;-55
2021/06/23 13:06:19;;;;;;;2.50;1.80;;;23.00;60.40;;;;;;4976474;28;20031;-56